Time;durP1;ratioP1;P1;durP2;ratioP2;P2;SDS_P1;SDS_P2;PMS_P1;PMS_P2;Temp;Humidity;BMP_temperature;BMP_pressure;BME280_temperature;BME280_humidity;BME280_pressure;Samples;Min_cycle;Max_cycle;Signal;HPM_P1;HPM_P2
2022/11/29 00:01:24;;;;;;;120.65;33.17;;;11.30;99.90;;;;;;4988424;28;20076;-75
2022/11/29 00:03:51;;;;;;;93.72;31.98;;;11.40;99.90;;;;;;4989940;28;20030;-75
2022/11/29 00:06:22;;;;;;;97.30;32.35;;;11.40;99.90;;;;;;4995058;28;20038;-76
2022/11/29 00:08:48;;;;;;;90.68;30.17;;;11.40;99.90;;;;;;4989242;28;20022;-74
2022/11/29 00:14:08;;;;;;;88.03;29.15;;;11.40;99.90;;;;;;4984600;28;20118;-75
2022/11/29 00:16:34;;;;;;;87.32;31.52;;;11.40;99.90;;;;;;4989718;28;20345;-74
2022/11/29 00:19:00;;;;;;;86.32;29.92;;;11.40;99.90;;;;;;4989404;28;20046;-75
2022/11/29 00:21:28;;;;;;;94.68;30.70;;;11.40;99.90;;;;;;4987389;28;20037;-74
2022/11/29 00:23:54;;;;;;;81.30;29.15;;;11.40;99.90;;;;;;4989998;28;20030;-74
2022/11/29 00:26:20;;;;;;;81.20;28.23;;;11.40;99.90;;;;;;4983004;28;20026;-75
2022/11/29 00:28:48;;;;;;;93.88;29.48;;;11.40;99.90;;;;;;4993252;28;20120;-75
2022/11/29 00:31:20;;;;;;;81.10;27.83;;;11.50;99.90;;;;;;4989056;28;20027;-74
2022/11/29 00:33:46;;;;;;;87.35;29.30;;;11.40;99.90;;;;;;4998916;28;20030;-73
2022/11/29 00:36:12;;;;;;;91.28;28.67;;;11.40;99.90;;;;;;4985310;28;20022;-74
2022/11/29 00:38:38;;;;;;;89.63;29.88;;;11.40;99.90;;;;;;4986366;28;20041;-75
2022/11/29 00:41:05;;;;;;;82.15;30.15;;;11.30;99.90;;;;;;4984837;28;20031;-74
2022/11/29 00:43:31;;;;;;;97.72;29.45;;;11.30;99.90;;;;;;4981573;28;20184;-75
2022/11/29 00:45:56;;;;;;;80.72;28.80;;;11.20;99.90;;;;;;4983160;28;20499;-75
2022/11/29 00:48:22;;;;;;;73.75;26.60;;;11.20;99.90;;;;;;4982799;28;20130;-74
2022/11/29 00:50:47;;;;;;;81.75;29.15;;;11.20;99.90;;;;;;4982760;28;20138;-73
2022/11/29 00:53:13;;;;;;;87.03;28.77;;;11.20;99.90;;;;;;4984905;28;20030;-74
2022/11/29 00:55:43;;;;;;;83.70;27.67;;;11.30;99.90;;;;;;4985105;28;20034;-74
2022/11/29 00:58:11;;;;;;;80.53;26.65;;;11.30;99.90;;;;;;4985045;28;20080;-74
2022/11/29 01:00:36;;;;;;;81.50;26.85;;;11.30;99.90;;;;;;4983202;28;20027;-74
2022/11/29 01:03:02;;;;;;;76.57;27.10;;;11.30;99.90;;;;;;4986447;28;20360;-73
2022/11/29 01:05:34;;;;;;;87.25;25.92;;;11.40;99.90;;;;;;4984889;28;20038;-75
2022/11/29 01:08:00;;;;;;;88.57;27.88;;;11.30;99.90;;;;;;4980511;28;20396;-74
2022/11/29 01:10:27;;;;;;;75.40;27.02;;;11.40;99.90;;;;;;4984497;28;20026;-73
2022/11/29 01:12:55;;;;;;;80.53;25.48;;;11.30;99.90;;;;;;4980692;28;20030;-74
2022/11/29 01:15:21;;;;;;;79.30;26.10;;;11.30;99.90;;;;;;4982848;28;20043;-73
2022/11/29 01:17:48;;;;;;;83.45;26.17;;;11.20;99.90;;;;;;4983092;28;20086;-74
2022/11/29 01:20:14;;;;;;;80.32;26.77;;;11.20;99.90;;;;;;4978428;28;20031;-74
2022/11/29 01:22:40;;;;;;;72.78;26.10;;;11.20;99.90;;;;;;4985682;28;20034;-74
2022/11/29 01:25:06;;;;;;;88.07;27.30;;;11.30;99.90;;;;;;4980696;28;20023;-75
2022/11/29 01:27:33;;;;;;;92.03;26.65;;;11.20;99.90;;;;;;4981857;28;20030;-74
2022/11/29 01:29:59;;;;;;;84.07;26.42;;;11.20;99.90;;;;;;4983465;28;20126;-72
2022/11/29 01:32:25;;;;;;;75.28;25.15;;;11.10;99.90;;;;;;4985282;28;20740;-74
2022/11/29 01:34:53;;;;;;;82.32;26.23;;;11.20;99.90;;;;;;4988180;28;20105;-74
2022/11/29 01:37:19;;;;;;;84.10;27.73;;;11.20;99.90;;;;;;4988216;28;20054;-73
2022/11/29 01:39:44;;;;;;;87.20;25.38;;;11.20;99.90;;;;;;4986537;28;20471;-74
2022/11/29 01:42:15;;;;;;;76.78;25.45;;;11.20;99.90;;;;;;4985322;28;20030;-74
2022/11/29 01:44:44;;;;;;;91.78;26.58;;;11.20;99.90;;;;;;4981438;28;20105;-73
2022/11/29 01:47:11;;;;;;;90.43;26.83;;;11.10;99.90;;;;;;4981672;28;20026;-74
2022/11/29 01:49:52;;;;;;;72.28;24.55;;;11.00;99.90;;;;;;4982844;28;20077;-74
2022/11/29 01:52:24;;;;;;;84.25;25.65;;;11.10;99.90;;;;;;4982441;28;20026;-75
2022/11/29 01:54:56;;;;;;;84.50;26.42;;;11.10;99.90;;;;;;4987577;28;20456;-74
2022/11/29 01:57:22;;;;;;;82.50;26.87;;;11.10;99.90;;;;;;4981907;28;20026;-73
2022/11/29 01:59:53;;;;;;;85.50;26.15;;;11.10;99.90;;;;;;4998134;28;20316;-73
2022/11/29 02:02:36;;;;;;;74.88;24.98;;;11.10;99.90;;;;;;4986040;28;20019;-74
2022/11/29 02:05:05;;;;;;;;;;;11.10;99.90;;;;;;4982341;28;20056;-75
2022/11/29 02:07:33;;;;;;;79.80;26.27;;;11.10;99.90;;;;;;4997432;28;19996;-73
2022/11/29 02:10:00;;;;;;;75.55;24.90;;;11.10;99.90;;;;;;4984935;28;20014;-74
2022/11/29 02:12:47;;;;;;;84.40;25.63;;;11.00;99.90;;;;;;4981373;28;20429;-74
2022/11/29 02:15:21;;;;;;;83.72;25.70;;;11.00;99.90;;;;;;4989062;28;20026;-74
2022/11/29 02:18:05;;;;;;;82.47;24.08;;;11.00;99.90;;;;;;4999145;28;20027;-73
2022/11/29 02:20:59;;;;;;;92.57;26.90;;;10.90;99.90;;;;;;4983921;28;20026;-74
2022/11/29 02:24:03;;;;;;;89.10;27.55;;;10.90;99.90;;;;;;4981232;28;20128;-74
2022/11/29 02:26:53;;;;;;;88.35;26.52;;;10.80;99.90;;;;;;4991199;28;20057;-74
2022/11/29 02:29:42;;;;;;;115.47;27.70;;;10.80;99.90;;;;;;4985837;28;20133;-75
2022/11/29 02:32:45;;;;;;;98.13;28.45;;;10.80;99.90;;;;;;4987571;28;20042;-75
2022/11/29 02:35:34;;;;;;;104.70;30.60;;;10.80;99.90;;;;;;4987424;28;20038;-74
2022/11/29 02:38:28;;;;;;;99.25;28.25;;;10.60;99.90;;;;;;4980053;28;20125;-74
2022/11/29 02:41:06;;;;;;;114.78;29.92;;;10.70;99.90;;;;;;4987229;28;20029;-73
2022/11/29 02:43:40;;;;;;;108.65;29.13;;;10.70;99.90;;;;;;4985761;28;20030;-74
2022/11/29 02:46:09;;;;;;;105.18;30.40;;;10.70;99.90;;;;;;4986868;28;20041;-73
2022/11/29 02:49:33;;;;;;;105.60;29.23;;;10.70;99.90;;;;;;4983809;28;20057;-73
2022/11/29 02:52:05;;;;;;;102.85;30.20;;;10.70;99.90;;;;;;4952407;28;20070;-74
2022/11/29 02:54:58;;;;;;;109.45;30.83;;;10.70;99.90;;;;;;4980195;28;20043;-74
2022/11/29 02:57:25;;;;;;;105.28;29.02;;;10.70;99.90;;;;;;4982605;28;20050;-74
2022/11/29 03:00:13;;;;;;;109.80;30.85;;;10.70;99.90;;;;;;4983197;28;20697;-74
2022/11/29 03:03:00;;;;;;;109.95;29.77;;;10.70;99.90;;;;;;4996569;28;20467;-74
2022/11/29 03:05:48;;;;;;;120.07;31.55;;;10.70;99.90;;;;;;4993895;28;20780;-73
2022/11/29 03:08:29;;;;;;;106.47;30.70;;;10.50;99.90;;;;;;4998881;28;20034;-74
2022/11/29 03:11:25;;;;;;;116.78;30.55;;;10.50;99.90;;;;;;4986066;28;20072;-75
2022/11/29 03:14:12;;;;;;;118.28;30.30;;;10.40;99.90;;;;;;4982692;28;20034;-73
2022/11/29 03:17:06;;;;;;;94.43;27.50;;;10.40;99.90;;;;;;4983352;28;20363;-73
2022/11/29 03:19:40;;;;;;;;;;;10.50;99.90;;;;;;4991622;28;20037;-74
2022/11/29 03:22:24;;;;;;;109.30;29.42;;;10.50;99.90;;;;;;4984312;28;19964;-73
2022/11/29 03:25:01;;;;;;;118.22;30.83;;;10.50;99.90;;;;;;4989841;28;20018;-73
2022/11/29 03:27:56;;;;;;;111.93;30.33;;;10.50;99.90;;;;;;4988294;28;20360;-75
2022/11/29 03:30:22;;;;;;;107.28;31.88;;;10.50;99.90;;;;;;4982076;28;20421;-74
2022/11/29 03:32:56;;;;;;;120.95;31.58;;;10.50;99.90;;;;;;4986568;28;20027;-74
2022/11/29 03:35:51;;;;;;;124.07;31.98;;;10.50;99.90;;;;;;4988071;28;20065;-73
2022/11/29 03:38:41;;;;;;;111.25;29.75;;;10.50;99.90;;;;;;5000710;28;20526;-74
2022/11/29 03:41:16;;;;;;;101.20;30.50;;;10.50;99.90;;;;;;4988462;28;20026;-74
2022/11/29 03:43:51;;;;;;;107.97;31.05;;;10.40;99.90;;;;;;4987430;28;20120;-74
2022/11/29 03:46:53;;;;;;;113.45;30.95;;;10.40;99.90;;;;;;4982891;28;20515;-73
2022/11/29 03:49:39;;;;;;;112.25;31.10;;;10.30;99.90;;;;;;4984220;28;20530;-74
2022/11/29 03:52:17;;;;;;;118.93;30.80;;;10.30;99.90;;;;;;4983934;28;20027;-71
2022/11/29 03:55:04;;;;;;;114.28;29.08;;;10.30;99.90;;;;;;4984861;28;20050;-74
2022/11/29 03:57:56;;;;;;;116.35;31.35;;;10.30;99.90;;;;;;4982214;28;20432;-73
2022/11/29 04:00:22;;;;;;;108.70;30.48;;;10.30;99.90;;;;;;4974475;28;20101;-74
2022/11/29 04:03:25;;;;;;;143.38;30.90;;;10.40;99.90;;;;;;4990084;28;20113;-76
2022/11/29 04:06:12;;;;;;;136.10;32.90;;;10.30;99.90;;;;;;4987453;28;20610;-74
2022/11/29 04:08:56;;;;;;;131.38;32.38;;;10.30;99.90;;;;;;4986491;28;20583;-73
2022/11/29 04:11:53;;;;;;;115.68;29.23;;;10.40;99.90;;;;;;4987154;28;20031;-74
2022/11/29 04:14:46;;;;;;;116.10;29.60;;;10.30;99.90;;;;;;4984625;28;20491;-74
2022/11/29 04:17:33;;;;;;;118.18;30.73;;;10.30;99.90;;;;;;5005136;28;20110;-73
2022/11/29 04:20:17;;;;;;;146.48;29.63;;;10.30;99.90;;;;;;4985002;28;20053;-74
2022/11/29 04:23:17;;;;;;;115.72;29.58;;;10.40;99.90;;;;;;4989221;28;20101;-74
2022/11/29 04:26:01;;;;;;;162.23;30.52;;;10.30;99.90;;;;;;4989004;28;20117;-74
2022/11/29 04:29:04;;;;;;;128.00;30.80;;;10.30;99.90;;;;;;4984574;28;20038;-74
2022/11/29 04:32:09;;;;;;;175.97;31.73;;;10.40;99.90;;;;;;4997152;28;20035;-73
2022/11/29 04:35:01;;;;;;;163.05;30.88;;;10.40;99.90;;;;;;4986548;28;20066;-74
2022/11/29 04:37:27;;;;;;;96.55;30.15;;;10.20;99.90;;;;;;4988683;28;20471;-74
2022/11/29 04:40:20;;;;;;;149.63;29.88;;;10.10;99.90;;;;;;4988075;28;20027;-74
2022/11/29 04:43:04;;;;;;;;;;;10.00;99.90;;;;;;4989584;28;20057;-74
2022/11/29 04:45:42;;;;;;;109.70;27.85;;;10.00;99.90;;;;;;4982477;28;19909;-74
2022/11/29 04:48:08;;;;;;;114.38;30.33;;;10.10;99.90;;;;;;4998744;28;20447;-72
2022/11/29 04:50:46;;;;;;;109.15;30.50;;;10.10;99.90;;;;;;4985925;28;20041;-74
2022/11/29 04:53:17;;;;;;;120.25;29.23;;;10.20;99.90;;;;;;4988125;28;20483;-73
2022/11/29 04:56:04;;;;;;;105.65;30.55;;;10.30;99.90;;;;;;4985889;28;20460;-74
2022/11/29 04:59:19;;;;;;;108.57;30.33;;;10.30;99.90;;;;;;4984686;28;20474;-74
2022/11/29 05:01:59;;;;;;;104.28;27.67;;;10.30;99.90;;;;;;4958843;28;20066;-74
2022/11/29 05:04:36;;;;;;;119.93;29.98;;;10.20;99.90;;;;;;4982521;28;20442;-74
2022/11/29 05:07:06;;;;;;;105.97;30.45;;;10.20;99.90;;;;;;4995171;28;20026;-74
2022/11/29 05:10:10;;;;;;;94.72;27.23;;;10.20;99.90;;;;;;4986633;28;20037;-73
2022/11/29 05:12:56;;;;;;;102.45;26.80;;;10.20;99.90;;;;;;4995792;28;20042;-74
2022/11/29 05:15:43;;;;;;;92.40;26.55;;;10.20;99.90;;;;;;4987493;28;20041;-73
2022/11/29 05:18:27;;;;;;;96.93;24.77;;;10.20;99.90;;;;;;4984570;28;20022;-74
2022/11/29 05:21:17;;;;;;;88.70;24.63;;;10.20;99.90;;;;;;5001206;28;20367;-71
2022/11/29 05:23:52;;;;;;;80.07;23.92;;;10.20;99.90;;;;;;4994141;28;20356;-71
2022/11/29 05:26:30;;;;;;;90.90;24.05;;;10.20;99.90;;;;;;4989951;28;20027;-70
2022/11/29 05:29:13;;;;;;;82.18;25.45;;;10.30;99.90;;;;;;4982429;28;20391;-70
2022/11/29 05:31:41;;;;;;;88.38;23.23;;;10.40;99.90;;;;;;4997935;28;20535;-70
2022/11/29 05:34:25;;;;;;;70.20;23.23;;;10.40;99.90;;;;;;4997161;28;20030;-71
2022/11/29 05:37:00;;;;;;;79.82;22.20;;;10.50;99.90;;;;;;4998873;28;20099;-71
2022/11/29 05:39:45;;;;;;;82.53;24.25;;;10.50;99.90;;;;;;4988187;28;20026;-70
2022/11/29 05:42:10;;;;;;;69.35;20.70;;;10.40;99.90;;;;;;4988939;28;20034;-72
2022/11/29 05:44:44;;;;;;;75.45;22.42;;;10.40;99.90;;;;;;4996994;28;20055;-71
2022/11/29 05:47:19;;;;;;;78.00;23.55;;;10.40;99.90;;;;;;4990604;28;20038;-74
2022/11/29 05:50:25;;;;;;;73.10;21.85;;;10.40;99.90;;;;;;5000223;28;20117;-75
2022/11/29 05:53:27;;;;;;;66.03;18.88;;;10.30;99.90;;;;;;4982176;28;20180;-70
2022/11/29 05:56:07;;;;;;;72.28;20.48;;;10.20;99.90;;;;;;4981293;28;20045;-70
2022/11/29 05:58:46;;;;;;;64.50;19.73;;;10.20;99.90;;;;;;4983188;28;20054;-71
2022/11/29 06:01:49;;;;;;;68.95;19.42;;;10.20;99.90;;;;;;4982572;28;20045;-72
2022/11/29 06:04:17;;;;;;;75.45;19.92;;;10.20;99.90;;;;;;4980888;28;20045;-71
2022/11/29 06:06:49;;;;;;;72.22;19.00;;;10.20;99.90;;;;;;4985081;28;20026;-72
2022/11/29 06:09:29;;;;;;;77.97;18.37;;;10.20;99.90;;;;;;4985542;28;20122;-71
2022/11/29 06:12:05;;;;;;;57.15;18.67;;;10.20;99.90;;;;;;4982142;28;20035;-71
2022/11/29 06:14:54;;;;;;;55.60;16.83;;;10.20;99.90;;;;;;4979605;28;20486;-72
2022/11/29 06:17:45;;;;;;;52.05;16.15;;;10.30;99.90;;;;;;4984154;28;20039;-71
2022/11/29 06:20:39;;;;;;;73.10;16.73;;;10.30;99.90;;;;;;4985340;28;20359;-71
2022/11/29 06:23:27;;;;;;;53.15;14.98;;;10.30;99.90;;;;;;4994858;28;20040;-70
2022/11/29 06:26:23;;;;;;;65.95;15.73;;;10.30;99.90;;;;;;4980311;28;20029;-71
2022/11/29 06:29:22;;;;;;;50.70;15.30;;;10.30;99.90;;;;;;4979271;28;20065;-70
2022/11/29 06:32:04;;;;;;;53.72;16.25;;;10.30;99.90;;;;;;4983084;28;20125;-70
2022/11/29 06:34:39;;;;;;;56.35;15.98;;;10.30;99.90;;;;;;4983437;28;20026;-70
2022/11/29 06:37:37;;;;;;;53.45;17.17;;;10.20;99.90;;;;;;4997877;28;20031;-71
2022/11/29 06:40:04;;;;;;;57.72;16.42;;;10.20;99.90;;;;;;4984399;28;20046;-70
2022/11/29 06:42:32;;;;;;;54.95;16.38;;;10.20;99.90;;;;;;4985838;28;20089;-72
2022/11/29 06:44:58;;;;;;;56.70;17.30;;;10.20;99.90;;;;;;4986501;28;20026;-71
2022/11/29 06:47:38;;;;;;;49.90;16.38;;;10.20;99.90;;;;;;4984872;28;20030;-71
2022/11/29 06:50:47;;;;;;;64.70;17.13;;;10.20;99.90;;;;;;4982610;28;20030;-70
2022/11/29 06:53:12;;;;;;;59.45;16.08;;;10.30;99.90;;;;;;4987362;28;20031;-71
2022/11/29 06:55:38;;;;;;;60.13;17.50;;;10.20;99.90;;;;;;5001745;28;20032;-71
2022/11/29 06:58:23;;;;;;;62.38;16.70;;;10.30;99.90;;;;;;4994520;28;20424;-70
2022/11/29 07:01:12;;;;;;;49.63;15.10;;;10.30;99.90;;;;;;4987131;28;20018;-71
2022/11/29 07:04:03;;;;;;;65.13;17.52;;;10.30;99.90;;;;;;5002648;28;20030;-70
2022/11/29 07:06:33;;;;;;;53.90;17.15;;;10.30;99.90;;;;;;4984729;28;20031;-72
2022/11/29 07:09:07;;;;;;;74.47;15.57;;;10.30;99.90;;;;;;5002423;28;20057;-71
2022/11/29 07:11:33;;;;;;;57.40;14.68;;;10.20;99.90;;;;;;5000358;28;20031;-75
2022/11/29 07:14:01;;;;;;;52.67;17.20;;;10.20;99.90;;;;;;4988786;28;20045;-72
2022/11/29 07:16:49;;;;;;;59.38;17.17;;;10.20;99.90;;;;;;4989508;28;20022;-72
2022/11/29 07:19:33;;;;;;;62.90;16.70;;;10.30;99.90;;;;;;4984101;28;20519;-72
2022/11/29 07:22:27;;;;;;;66.45;16.98;;;10.20;99.90;;;;;;4998996;28;20027;-70
2022/11/29 07:25:11;;;;;;;;;;;10.10;99.90;;;;;;4989199;28;20027;-68
2022/11/29 07:28:01;;;;;;;64.25;15.88;;;10.10;99.90;;;;;;4984884;28;19909;-71
2022/11/29 07:30:37;;;;;;;60.40;14.88;;;10.10;99.90;;;;;;4989678;28;20077;-71
2022/11/29 07:33:12;;;;;;;65.03;16.67;;;10.20;99.90;;;;;;4985564;28;20026;-69
2022/11/29 07:35:58;;;;;;;60.60;16.08;;;10.20;99.90;;;;;;4986115;28;20028;-69
2022/11/29 07:39:01;;;;;;;59.42;15.98;;;10.10;99.90;;;;;;4990371;28;20034;-70
2022/11/29 07:41:29;;;;;;;68.95;16.75;;;10.10;99.90;;;;;;4983234;28;20027;-71
2022/11/29 07:44:20;;;;;;;70.35;18.08;;;10.10;99.90;;;;;;4989761;28;20065;-70
2022/11/29 07:46:45;;;;;;;81.90;19.48;;;10.10;99.90;;;;;;4988902;28;20100;-70
2022/11/29 07:49:11;;;;;;;64.88;18.63;;;10.10;99.90;;;;;;4990178;28;20026;-71
2022/11/29 07:51:41;;;;;;;69.97;18.25;;;10.10;99.90;;;;;;4990665;28;20045;-71
2022/11/29 07:54:12;;;;;;;72.68;18.38;;;10.20;99.90;;;;;;4999410;28;20037;-70
2022/11/29 07:56:37;;;;;;;66.35;18.58;;;10.20;99.90;;;;;;4980649;28;20045;-72
2022/11/29 07:59:09;;;;;;;71.65;18.30;;;10.30;99.90;;;;;;4985104;28;20435;-70
2022/11/29 08:01:35;;;;;;;67.10;18.45;;;10.30;99.90;;;;;;4987918;28;20030;-70
2022/11/29 08:04:01;;;;;;;76.80;19.77;;;10.20;99.90;;;;;;4994315;28;20088;-71
2022/11/29 08:06:28;;;;;;;69.53;17.15;;;10.20;99.90;;;;;;4986576;28;20149;-71
2022/11/29 08:09:00;;;;;;;77.28;18.38;;;10.10;99.90;;;;;;4986158;28;20038;-71
2022/11/29 08:11:28;;;;;;;87.75;19.23;;;10.10;99.90;;;;;;4986189;28;20105;-71
2022/11/29 08:14:02;;;;;;;68.82;17.50;;;10.10;99.90;;;;;;4995042;28;20027;-72
2022/11/29 08:16:28;;;;;;;81.40;20.85;;;10.20;99.90;;;;;;4984725;28;20023;-72
2022/11/29 08:18:56;;;;;;;84.60;19.10;;;10.20;99.90;;;;;;4982447;28;21449;-71
2022/11/29 08:21:22;;;;;;;74.10;19.15;;;10.20;99.90;;;;;;4985132;28;20497;-71
2022/11/29 08:23:48;;;;;;;68.55;16.67;;;10.20;99.90;;;;;;4990490;28;20026;-71
2022/11/29 08:26:16;;;;;;;77.80;18.65;;;10.20;99.90;;;;;;4987831;28;20601;-72
2022/11/29 08:28:42;;;;;;;82.65;20.63;;;10.20;99.90;;;;;;4985557;28;20034;-73
2022/11/29 08:31:09;;;;;;;87.70;20.88;;;10.30;99.90;;;;;;4986638;28;20038;-71
2022/11/29 08:33:42;;;;;;;79.90;19.10;;;10.30;99.90;;;;;;4986079;28;20041;-72
2022/11/29 08:36:10;;;;;;;84.80;19.90;;;10.30;99.90;;;;;;4984086;28;20030;-74
2022/11/29 08:38:38;;;;;;;78.85;21.60;;;10.30;99.90;;;;;;4985778;28;20041;-72
2022/11/29 08:41:06;;;;;;;83.57;20.65;;;10.40;99.90;;;;;;4985208;28;20045;-71
2022/11/29 08:43:32;;;;;;;94.82;22.52;;;10.40;99.90;;;;;;4985314;28;20042;-72
2022/11/29 08:45:58;;;;;;;100.88;21.63;;;10.40;99.90;;;;;;4985405;28;20026;-71
2022/11/29 08:48:26;;;;;;;106.63;23.75;;;10.40;99.90;;;;;;4986092;28;20084;-71
2022/11/29 08:50:53;;;;;;;107.95;22.52;;;10.30;99.90;;;;;;4982474;28;20038;-71
2022/11/29 08:56:07;;;;;;;110.70;23.92;;;10.30;99.90;;;;;;4986247;28;20368;-74
2022/11/29 08:58:33;;;;;;;98.57;22.48;;;10.30;99.90;;;;;;4984390;28;20027;-72
2022/11/29 09:00:58;;;;;;;106.00;25.83;;;10.40;99.90;;;;;;4988563;28;20023;-71
2022/11/29 09:06:11;;;;;;;113.25;26.20;;;10.30;99.90;;;;;;4983682;28;20036;-71
2022/11/29 09:08:37;;;;;;;123.60;28.08;;;10.30;99.90;;;;;;4983534;28;20046;-71
2022/11/29 09:11:25;;;;;;;121.15;26.20;;;10.30;99.90;;;;;;4982766;28;20686;-70
2022/11/29 09:13:55;;;;;;;103.72;23.52;;;10.30;99.90;;;;;;4983666;28;20045;-71
2022/11/29 09:16:24;;;;;;;114.72;24.75;;;10.30;99.90;;;;;;5000020;28;20502;-71
2022/11/29 09:18:51;;;;;;;122.00;26.17;;;10.30;99.90;;;;;;4986091;28;20085;-72
2022/11/29 09:21:17;;;;;;;120.85;26.45;;;10.30;99.90;;;;;;4984383;28;20034;-68
2022/11/29 09:23:46;;;;;;;131.27;25.95;;;10.30;99.90;;;;;;4982218;28;20131;-71
2022/11/29 09:26:17;;;;;;;123.38;25.52;;;10.30;99.90;;;;;;4986110;28;20042;-71
2022/11/29 09:28:43;;;;;;;108.03;25.70;;;10.40;99.90;;;;;;4985243;28;20043;-72
2022/11/29 09:31:13;;;;;;;117.68;26.00;;;10.40;99.90;;;;;;4981594;28;20163;-71
2022/11/29 09:33:39;;;;;;;122.22;25.25;;;10.40;99.90;;;;;;4984935;28;20018;-72
2022/11/29 09:36:09;;;;;;;115.38;25.00;;;10.40;99.90;;;;;;4983655;28;20483;-71
2022/11/29 09:38:35;;;;;;;109.53;23.67;;;10.50;99.90;;;;;;4983990;28;20037;-69
2022/11/29 09:41:38;;;;;;;107.85;24.73;;;10.50;99.90;;;;;;4990723;28;20034;-72
2022/11/29 09:44:21;;;;;;;116.80;24.40;;;10.50;99.90;;;;;;4994815;28;20034;-70
2022/11/29 09:46:49;;;;;;;;;;;10.60;99.90;;;;;;4988889;28;20046;-71
2022/11/29 09:49:29;;;;;;;107.70;24.50;;;10.50;99.90;;;;;;4987997;28;19913;-72
2022/11/29 09:52:11;;;;;;;107.72;25.80;;;10.60;99.90;;;;;;4984808;28;20079;-72
2022/11/29 09:55:03;;;;;;;96.40;23.92;;;10.50;99.90;;;;;;4994534;28;20468;-71
2022/11/29 09:57:31;;;;;;;95.15;21.80;;;10.60;99.90;;;;;;4979378;28;20725;-71
2022/11/29 10:00:03;;;;;;;82.57;19.65;;;10.70;99.90;;;;;;4982429;28;20031;-71
2022/11/29 10:02:46;;;;;;;87.35;21.73;;;10.70;99.90;;;;;;4984590;28;20049;-72
2022/11/29 10:05:23;;;;;;;93.35;23.10;;;10.70;99.90;;;;;;4983403;28;20114;-71
2022/11/29 10:08:13;;;;;;;95.68;23.23;;;10.70;99.90;;;;;;4986173;28;20030;-71
2022/11/29 10:10:42;;;;;;;91.50;22.13;;;10.70;99.90;;;;;;4981359;28;20503;-72
2022/11/29 10:13:44;;;;;;;95.75;23.25;;;10.70;99.90;;;;;;4986776;28;20045;-72
2022/11/29 10:16:19;;;;;;;88.55;22.48;;;10.70;99.90;;;;;;4943257;28;20042;-71
2022/11/29 10:18:50;;;;;;;78.00;20.75;;;10.70;99.90;;;;;;4985681;28;20023;-72
2022/11/29 10:21:33;;;;;;;83.80;22.17;;;10.70;99.90;;;;;;4994070;28;20073;-72
2022/11/29 10:24:03;;;;;;;90.03;21.35;;;10.80;99.90;;;;;;4984568;28;20074;-72
2022/11/29 10:26:29;;;;;;;84.40;21.63;;;10.80;99.90;;;;;;4984408;28;20033;-71
2022/11/29 10:28:56;;;;;;;89.68;21.48;;;10.80;99.90;;;;;;4979146;28;20041;-72
2022/11/29 10:31:34;;;;;;;98.20;21.90;;;10.80;99.90;;;;;;4983669;28;20026;-72
2022/11/29 10:34:10;;;;;;;79.75;21.48;;;10.80;99.90;;;;;;4982508;28;20034;-71
2022/11/29 10:36:51;;;;;;;78.22;18.88;;;10.70;99.90;;;;;;4984291;28;20053;-71
2022/11/29 10:39:23;;;;;;;79.10;22.13;;;10.70;99.90;;;;;;4984644;28;20037;-71
2022/11/29 10:41:56;;;;;;;78.05;20.25;;;10.80;99.90;;;;;;4983765;28;20026;-70
2022/11/29 10:44:23;;;;;;;77.57;20.42;;;10.90;99.90;;;;;;4983253;28;20026;-74
2022/11/29 10:46:48;;;;;;;76.97;20.52;;;10.90;99.90;;;;;;4982984;28;20023;-73
2022/11/29 10:49:17;;;;;;;88.50;21.38;;;10.80;99.90;;;;;;4982043;28;20033;-73
2022/11/29 10:51:46;;;;;;;82.28;20.88;;;10.90;99.90;;;;;;4983781;28;20023;-70
2022/11/29 10:54:31;;;;;;;88.40;22.63;;;10.80;99.90;;;;;;4983097;28;20129;-72
2022/11/29 10:57:00;;;;;;;85.63;21.58;;;10.70;99.90;;;;;;4982247;28;20097;-74
2022/11/29 10:59:28;;;;;;;85.45;22.75;;;10.70;99.90;;;;;;4983342;28;20121;-75
2022/11/29 11:01:55;;;;;;;83.90;21.40;;;10.60;99.90;;;;;;4988297;28;20061;-77
2022/11/29 11:04:28;;;;;;;80.85;21.52;;;10.60;99.90;;;;;;4993370;28;20037;-76
2022/11/29 11:06:59;;;;;;;88.63;20.48;;;10.70;99.90;;;;;;4995289;28;20030;-72
2022/11/29 11:09:41;;;;;;;74.78;20.05;;;10.70;99.90;;;;;;4996584;28;20034;-71
2022/11/29 11:12:19;;;;;;;88.68;21.90;;;10.70;99.90;;;;;;5004782;28;20086;-72
2022/11/29 11:14:45;;;;;;;69.35;19.52;;;10.80;99.90;;;;;;4997442;28;20299;-73
2022/11/29 11:17:30;;;;;;;80.07;21.33;;;10.80;99.90;;;;;;5002678;28;20092;-73
2022/11/29 11:19:55;;;;;;;79.65;20.90;;;10.90;99.90;;;;;;4989136;28;20100;-72
2022/11/29 11:22:23;;;;;;;77.90;20.63;;;10.90;99.90;;;;;;4985135;28;20030;-75
2022/11/29 11:25:00;;;;;;;79.55;21.35;;;10.90;99.90;;;;;;4989072;28;20054;-72
2022/11/29 11:27:33;;;;;;;79.60;21.92;;;10.80;99.90;;;;;;4984768;28;20038;-71
2022/11/29 11:30:00;;;;;;;84.38;23.33;;;10.80;99.90;;;;;;4983874;28;20035;-69
2022/11/29 11:32:26;;;;;;;89.85;22.50;;;10.70;99.90;;;;;;4988280;28;20113;-72
2022/11/29 11:34:54;;;;;;;83.25;22.95;;;10.70;99.90;;;;;;4981983;28;20197;-70
2022/11/29 11:37:30;;;;;;;74.07;22.40;;;10.60;99.90;;;;;;4985101;28;20018;-73
2022/11/29 11:40:18;;;;;;;88.60;23.35;;;10.60;99.90;;;;;;4987857;28;20427;-72
2022/11/29 11:42:46;;;;;;;73.70;21.13;;;10.70;99.90;;;;;;4986705;28;20026;-72
2022/11/29 11:45:12;;;;;;;86.93;24.27;;;10.80;99.90;;;;;;4986853;28;20085;-70
2022/11/29 11:47:45;;;;;;;74.78;20.77;;;10.80;99.90;;;;;;4985043;28;20050;-73
2022/11/29 11:50:23;;;;;;;78.93;20.67;;;10.90;99.90;;;;;;4986396;28;20189;-71
2022/11/29 11:52:52;;;;;;;79.00;21.25;;;10.90;99.90;;;;;;4988064;28;20085;-73
2022/11/29 11:55:21;;;;;;;80.88;21.65;;;11.00;99.90;;;;;;4991203;28;20026;-72
2022/11/29 11:58:13;;;;;;;72.68;22.33;;;11.10;99.90;;;;;;4988195;28;20024;-73
2022/11/29 12:00:38;;;;;;;80.63;21.52;;;11.20;99.90;;;;;;4982814;28;20030;-73
2022/11/29 12:03:16;;;;;;;77.78;20.75;;;11.30;99.90;;;;;;4991843;28;20040;-73
2022/11/29 12:05:43;;;;;;;72.95;20.50;;;11.30;99.90;;;;;;4988598;28;20022;-72
2022/11/29 12:08:10;;;;;;;65.78;18.08;;;11.30;99.90;;;;;;4989009;28;20042;-72
2022/11/29 12:10:39;;;;;;;62.67;19.27;;;11.30;99.90;;;;;;4988293;28;20092;-73
2022/11/29 12:13:11;;;;;;;62.22;18.17;;;11.20;99.90;;;;;;4989327;28;20038;-75
2022/11/29 12:15:42;;;;;;;62.42;18.13;;;11.30;99.90;;;;;;4991128;28;20022;-70
2022/11/29 12:18:23;;;;;;;72.18;20.33;;;11.40;99.90;;;;;;5004277;28;20022;-72
2022/11/29 12:20:57;;;;;;;67.63;18.50;;;11.40;99.90;;;;;;4990807;28;20026;-72
2022/11/29 12:23:38;;;;;;;68.72;18.42;;;11.40;99.90;;;;;;4987303;28;20033;-75
2022/11/29 12:26:06;;;;;;;65.50;16.13;;;11.30;99.90;;;;;;4989748;28;20092;-72
2022/11/29 12:28:37;;;;;;;72.82;18.35;;;11.30;99.90;;;;;;4981923;28;20041;-71
2022/11/29 12:31:27;;;;;;;72.00;17.17;;;11.40;99.90;;;;;;4996327;28;20468;-71
2022/11/29 12:34:07;;;;;;;63.00;17.10;;;11.30;99.90;;;;;;4985841;28;20038;-75
2022/11/29 12:37:08;;;;;;;66.68;16.92;;;11.20;99.90;;;;;;4986976;28;20030;-75
2022/11/29 12:39:48;;;;;;;60.35;17.85;;;11.20;99.90;;;;;;4998851;28;20034;-71
2022/11/29 12:42:34;;;;;;;71.65;18.38;;;11.10;99.90;;;;;;4984716;28;20093;-72
2022/11/29 12:45:37;;;;;;;65.78;21.35;;;11.10;99.90;;;;;;4984841;28;20603;-73
2022/11/29 12:48:24;;;;;;;65.22;17.08;;;11.10;99.90;;;;;;5000352;28;20042;-71
2022/11/29 12:51:09;;;;;;;56.67;16.58;;;11.10;99.90;;;;;;4982219;28;20387;-73
2022/11/29 12:53:59;;;;;;;54.17;16.08;;;11.10;99.90;;;;;;4986850;28;20125;-73
2022/11/29 12:56:37;;;;;;;54.72;14.77;;;11.10;99.90;;;;;;4986511;28;20027;-71
2022/11/29 12:59:25;;;;;;;58.22;15.57;;;11.00;99.90;;;;;;4988525;28;20030;-71
2022/11/29 13:02:03;;;;;;;51.25;15.50;;;11.00;99.90;;;;;;4986854;28;20089;-72
2022/11/29 13:05:17;;;;;;;54.47;15.38;;;10.90;99.90;;;;;;4981809;28;20031;-71
2022/11/29 13:08:03;;;;;;;50.67;15.75;;;11.00;99.90;;;;;;4982928;28;20038;-71
2022/11/29 13:10:47;;;;;;;48.67;15.63;;;11.00;99.90;;;;;;4988421;28;20034;-72
2022/11/29 13:13:31;;;;;;;47.22;14.18;;;11.00;99.90;;;;;;4988962;28;20047;-72
2022/11/29 13:16:11;;;;;;;50.83;13.55;;;11.00;99.90;;;;;;4998825;28;20404;-72
2022/11/29 13:18:52;;;;;;;52.53;14.23;;;11.00;99.90;;;;;;5002572;28;20126;-71
2022/11/29 13:21:27;;;;;;;45.03;13.25;;;11.00;99.90;;;;;;4985911;28;20448;-72
2022/11/29 13:23:57;;;;;;;65.85;16.08;;;11.00;99.90;;;;;;4984062;28;20045;-71